sensor_id;sensor_type;location;lat;lon;timestamp;pressure;altitude;pressure_sealevel;temperature;humidity
8627;BME280;4351;51.422;6.794;2023-02-10T00:01:24;103384.44;;;4.66;100.00
8627;BME280;4351;51.422;6.794;2023-02-10T00:03:53;103396.94;;;4.66;100.00
8627;BME280;4351;51.422;6.794;2023-02-10T00:06:22;103400.47;;;4.63;100.00
8627;BME280;4351;51.422;6.794;2023-02-10T00:08:53;103392.44;;;4.60;100.00
8627;BME280;4351;51.422;6.794;2023-02-10T00:11:23;103400.50;;;4.65;100.00
8627;BME280;4351;51.422;6.794;2023-02-10T00:14:12;103403.19;;;4.66;100.00
8627;BME280;4351;51.422;6.794;2023-02-10T00:16:41;103400.47;;;4.60;100.00
8627;BME280;4351;51.422;6.794;2023-02-10T00:19:08;103405.94;;;4.77;100.00
8627;BME280;4351;51.422;6.794;2023-02-10T00:21:36;103403.13;;;4.60;100.00
8627;BME280;4351;51.422;6.794;2023-02-10T00:24:05;103398.69;;;4.64;100.00
8627;BME280;4351;51.422;6.794;2023-02-10T00:26:34;103400.47;;;4.62;100.00
8627;BME280;4351;51.422;6.794;2023-02-10T00:29:02;103396.03;;;4.64;100.00
8627;BME280;4351;51.422;6.794;2023-02-10T00:31:30;103397.75;;;4.57;100.00
8627;BME280;4351;51.422;6.794;2023-02-10T00:33:58;103400.38;;;4.52;100.00
8627;BME280;4351;51.422;6.794;2023-02-10T00:36:26;103396.06;;;4.68;100.00
8627;BME280;4351;51.422;6.794;2023-02-10T00:38:54;103408.56;;;4.72;100.00
8627;BME280;4351;51.422;6.794;2023-02-10T00:41:23;103400.50;;;4.68;100.00
8627;BME280;4351;51.422;6.794;2023-02-10T00:43:53;103401.44;;;4.73;100.00
8627;BME280;4351;51.422;6.794;2023-02-10T00:46:21;103405.88;;;4.72;100.00
8627;BME280;4351;51.422;6.794;2023-02-10T00:48:50;103405.84;;;4.68;100.00
8627;BME280;4351;51.422;6.794;2023-02-10T00:51:18;103398.81;;;4.81;100.00
8627;BME280;4351;51.422;6.794;2023-02-10T00:53:46;103397.94;;;4.82;100.00
8627;BME280;4351;51.422;6.794;2023-02-10T00:56:17;103405.06;;;4.80;100.00
8627;BME280;4351;51.422;6.794;2023-02-10T00:58:46;103392.56;;;4.76;100.00
8627;BME280;4351;51.422;6.794;2023-02-10T01:01:16;103397.94;;;4.85;100.00
8627;BME280;4351;51.422;6.794;2023-02-10T01:03:44;103411.34;;;4.87;100.00
8627;BME280;4351;51.422;6.794;2023-02-10T01:06:13;103407.75;;;4.88;100.00
8627;BME280;4351;51.422;6.794;2023-02-10T01:08:41;103404.19;;;4.84;100.00
8627;BME280;4351;51.422;6.794;2023-02-10T01:11:11;103418.41;;;4.74;100.00
8627;BME280;4351;51.422;6.794;2023-02-10T01:13:41;103416.66;;;4.83;100.00
8627;BME280;4351;51.422;6.794;2023-02-10T01:16:12;103408.63;;;4.85;100.00
8627;BME280;4351;51.422;6.794;2023-02-10T01:18:44;103415.72;;;4.77;100.00
8627;BME280;4351;51.422;6.794;2023-02-10T01:21:14;103413.94;;;4.76;100.00
8627;BME280;4351;51.422;6.794;2023-02-10T01:23:43;103419.31;;;4.79;100.00
8627;BME280;4351;51.422;6.794;2023-02-10T01:26:11;103421.06;;;4.77;100.00
8627;BME280;4351;51.422;6.794;2023-02-10T01:28:40;103421.97;;;4.79;100.00
8627;BME280;4351;51.422;6.794;2023-02-10T01:31:11;103434.41;;;4.72;100.00
8627;BME280;4351;51.422;6.794;2023-02-10T01:33:40;103442.44;;;4.70;100.00
8627;BME280;4351;51.422;6.794;2023-02-10T01:36:12;103442.44;;;4.70;100.00
8627;BME280;4351;51.422;6.794;2023-02-10T01:38:40;103446.00;;;4.69;100.00
8627;BME280;4351;51.422;6.794;2023-02-10T01:41:09;103446.00;;;4.71;100.00
8627;BME280;4351;51.422;6.794;2023-02-10T01:43:53;103447.78;;;4.69;100.00
8627;BME280;4351;51.422;6.794;2023-02-10T01:46:22;103455.81;;;4.70;100.00
8627;BME280;4351;51.422;6.794;2023-02-10T01:48:50;103456.72;;;4.71;100.00
8627;BME280;4351;51.422;6.794;2023-02-10T01:51:23;103462.09;;;4.76;100.00
8627;BME280;4351;51.422;6.794;2023-02-10T01:53:53;103467.41;;;4.71;100.00
8627;BME280;4351;51.422;6.794;2023-02-10T01:56:22;103473.66;;;4.75;100.00
8627;BME280;4351;51.422;6.794;2023-02-10T01:58:50;103479.03;;;4.76;100.00
8627;BME280;4351;51.422;6.794;2023-02-10T02:01:18;103475.41;;;4.68;100.00
8627;BME280;4351;51.422;6.794;2023-02-10T02:03:46;103481.69;;;4.73;100.00
8627;BME280;4351;51.422;6.794;2023-02-10T02:06:14;103473.59;;;4.65;100.00
8627;BME280;4351;51.422;6.794;2023-02-10T02:08:44;103473.63;;;4.70;100.00
8627;BME280;4351;51.422;6.794;2023-02-10T02:11:18;103478.88;;;4.57;100.00
8627;BME280;4351;51.422;6.794;2023-02-10T02:14:02;103487.81;;;4.61;100.00
8627;BME280;4351;51.422;6.794;2023-02-10T02:16:43;103485.94;;;4.47;100.00
8627;BME280;4351;51.422;6.794;2023-02-10T02:19:32;103487.66;;;4.42;100.00
8627;BME280;4351;51.422;6.794;2023-02-10T02:22:27;103500.22;;;4.53;100.00
8627;BME280;4351;51.422;6.794;2023-02-10T02:25:11;103505.47;;;4.43;100.00
8627;BME280;4351;51.422;6.794;2023-02-10T02:28:12;103505.56;;;4.50;100.00
8627;BME280;4351;51.422;6.794;2023-02-10T02:31:28;103515.22;;;4.35;100.00
8627;BME280;4351;51.422;6.794;2023-02-10T02:34:01;103511.72;;;4.42;100.00
8627;BME280;4351;51.422;6.794;2023-02-10T02:36:34;103522.31;;;4.33;100.00
8627;BME280;4351;51.422;6.794;2023-02-10T02:39:05;103524.03;;;4.24;100.00
8627;BME280;4351;51.422;6.794;2023-02-10T02:41:33;103521.22;;;4.13;100.00
8627;BME280;4351;51.422;6.794;2023-02-10T02:44:04;103527.50;;;4.17;100.00
8627;BME280;4351;51.422;6.794;2023-02-10T02:46:43;103531.84;;;4.09;100.00
8627;BME280;4351;51.422;6.794;2023-02-10T02:49:20;103532.75;;;4.08;100.00
8627;BME280;4351;51.422;6.794;2023-02-10T02:51:59;103535.31;;;3.98;100.00
8627;BME280;4351;51.422;6.794;2023-02-10T02:54:34;103534.25;;;3.85;100.00
8627;BME280;4351;51.422;6.794;2023-02-10T02:57:10;103543.31;;;3.97;100.00
8627;BME280;4351;51.422;6.794;2023-02-10T02:59:42;103536.00;;;3.82;100.00
8627;BME280;4351;51.422;6.794;2023-02-10T03:02:17;103553.97;;;3.95;100.00
8627;BME280;4351;51.422;6.794;2023-02-10T03:04:48;103551.34;;;4.00;100.00
8627;BME280;4351;51.422;6.794;2023-02-10T03:07:16;103545.09;;;3.96;100.00
8627;BME280;4351;51.422;6.794;2023-02-10T03:09:44;103539.69;;;3.93;100.00
8627;BME280;4351;51.422;6.794;2023-02-10T03:12:12;103536.00;;;3.82;100.00
8627;BME280;4351;51.422;6.794;2023-02-10T03:14:40;103536.00;;;3.82;100.00
8627;BME280;4351;51.422;6.794;2023-02-10T03:17:07;103546.00;;;3.98;100.00
8627;BME280;4351;51.422;6.794;2023-02-10T03:19:37;103544.97;;;3.87;100.00
8627;BME280;4351;51.422;6.794;2023-02-10T03:22:05;103552.13;;;3.89;100.00
8627;BME280;4351;51.422;6.794;2023-02-10T03:24:33;103552.97;;;3.87;100.00
8627;BME280;4351;51.422;6.794;2023-02-10T03:27:01;103555.41;;;3.68;100.00
8627;BME280;4351;51.422;6.794;2023-02-10T03:29:31;103561.75;;;3.78;100.00
8627;BME280;4351;51.422;6.794;2023-02-10T03:31:59;103564.28;;;3.67;100.00
8627;BME280;4351;51.422;6.794;2023-02-10T03:34:28;103569.69;;;3.70;100.00
8627;BME280;4351;51.422;6.794;2023-02-10T03:36:57;103576.69;;;3.63;100.00
8627;BME280;4351;51.422;6.794;2023-02-10T03:39:25;103591.78;;;3.60;100.00
8627;BME280;4351;51.422;6.794;2023-02-10T03:41:53;103590.72;;;3.48;100.00
8627;BME280;4351;51.422;6.794;2023-02-10T03:44:21;103597.84;;;3.48;100.00
8627;BME280;4351;51.422;6.794;2023-02-10T03:46:49;103602.09;;;3.35;100.00
8627;BME280;4351;51.422;6.794;2023-02-10T03:49:17;103611.75;;;3.28;100.00
8627;BME280;4351;51.422;6.794;2023-02-10T03:51:45;103611.78;;;3.29;100.00
8627;BME280;4351;51.422;6.794;2023-02-10T03:54:14;103625.81;;;3.16;100.00
8627;BME280;4351;51.422;6.794;2023-02-10T03:56:42;103618.81;;;3.24;100.00
8627;BME280;4351;51.422;6.794;2023-02-10T03:59:10;103616.88;;;3.14;100.00
8627;BME280;4351;51.422;6.794;2023-02-10T04:01:38;103615.16;;;3.19;100.00
8627;BME280;4351;51.422;6.794;2023-02-10T04:04:07;103616.19;;;3.26;100.00
8627;BME280;4351;51.422;6.794;2023-02-10T04:06:35;103602.06;;;3.33;100.00
8627;BME280;4351;51.422;6.794;2023-02-10T04:09:03;103606.50;;;3.32;100.00
8627;BME280;4351;51.422;6.794;2023-02-10T04:11:33;103603.09;;;3.41;100.00
8627;BME280;4351;51.422;6.794;2023-02-10T04:14:01;103591.13;;;3.16;100.00
8627;BME280;4351;51.422;6.794;2023-02-10T04:16:29;103586.66;;;3.16;100.00
8627;BME280;4351;51.422;6.794;2023-02-10T04:18:58;103587.75;;;3.28;100.00
8627;BME280;4351;51.422;6.794;2023-02-10T04:21:26;103586.00;;;3.31;100.00
8627;BME280;4351;51.422;6.794;2023-02-10T04:23:54;103588.75;;;3.35;100.00
8627;BME280;4351;51.422;6.794;2023-02-10T04:26:23;103585.38;;;3.48;100.00
8627;BME280;4351;51.422;6.794;2023-02-10T04:28:52;103583.50;;;3.41;100.00
8627;BME280;4351;51.422;6.794;2023-02-10T04:31:20;103588.63;;;3.27;100.00
8627;BME280;4351;51.422;6.794;2023-02-10T04:33:48;103593.25;;;3.39;100.00
8627;BME280;4351;51.422;6.794;2023-02-10T04:36:16;103593.06;;;3.28;100.00
8627;BME280;4351;51.422;6.794;2023-02-10T04:38:44;103589.41;;;3.22;100.00
8627;BME280;4351;51.422;6.794;2023-02-10T04:41:12;103581.28;;;3.13;100.00
8627;BME280;4351;51.422;6.794;2023-02-10T04:43:40;103583.97;;;3.13;100.00
8627;BME280;4351;51.422;6.794;2023-02-10T04:46:09;103592.09;;;3.22;100.00
8627;BME280;4351;51.422;6.794;2023-02-10T04:48:37;103583.06;;;3.13;100.00
8627;BME280;4351;51.422;6.794;2023-02-10T04:51:06;103586.63;;;3.13;100.00
8627;BME280;4351;51.422;6.794;2023-02-10T04:53:34;103579.47;;;3.10;100.00
8627;BME280;4351;51.422;6.794;2023-02-10T04:56:03;103581.31;;;3.15;100.00
8627;BME280;4351;51.422;6.794;2023-02-10T04:58:31;103572.19;;;3.00;100.00
8627;BME280;4351;51.422;6.794;2023-02-10T05:00:59;103576.88;;;3.15;100.00
8627;BME280;4351;51.422;6.794;2023-02-10T05:03:29;103583.88;;;3.07;100.00
8627;BME280;4351;51.422;6.794;2023-02-10T05:05:57;103585.97;;;3.28;100.00
8627;BME280;4351;51.422;6.794;2023-02-10T05:08:25;103585.00;;;3.23;100.00
8627;BME280;4351;51.422;6.794;2023-02-10T05:10:53;103590.22;;;3.17;100.00
8627;BME280;4351;51.422;6.794;2023-02-10T05:13:21;103596.72;;;3.33;100.00
8627;BME280;4351;51.422;6.794;2023-02-10T05:15:49;103584.91;;;3.17;100.00
8627;BME280;4351;51.422;6.794;2023-02-10T05:18:18;103591.13;;;3.16;100.00
8627;BME280;4351;51.422;6.794;2023-02-10T05:20:47;103591.16;;;3.19;100.00
8627;BME280;4351;51.422;6.794;2023-02-10T05:23:15;103599.31;;;3.28;100.00
8627;BME280;4351;51.422;6.794;2023-02-10T05:25:43;103597.47;;;3.24;100.00
8627;BME280;4351;51.422;6.794;2023-02-10T05:28:12;103599.16;;;3.19;100.00
8627;BME280;4351;51.422;6.794;2023-02-10T05:30:39;103601.91;;;3.22;100.00
8627;BME280;4351;51.422;6.794;2023-02-10T05:33:09;103609.00;;;3.21;100.00
8627;BME280;4351;51.422;6.794;2023-02-10T05:35:37;103609.06;;;3.26;100.00
8627;BME280;4351;51.422;6.794;2023-02-10T05:38:06;103616.25;;;3.30;100.00
8627;BME280;4351;51.422;6.794;2023-02-10T05:40:34;103615.53;;;3.41;100.00
8627;BME280;4351;51.422;6.794;2023-02-10T05:43:02;103613.69;;;3.37;100.00
8627;BME280;4351;51.422;6.794;2023-02-10T05:45:30;103619.84;;;3.31;100.00
8627;BME280;4351;51.422;6.794;2023-02-10T05:47:58;103625.09;;;3.26;100.00
8627;BME280;4351;51.422;6.794;2023-02-10T05:50:26;103620.59;;;3.24;100.00
8627;BME280;4351;51.422;6.794;2023-02-10T05:52:56;103624.41;;;3.40;100.00
8627;BME280;4351;51.422;6.794;2023-02-10T05:55:25;103627.28;;;3.52;100.00
8627;BME280;4351;51.422;6.794;2023-02-10T05:57:53;103626.34;;;3.50;100.00
8627;BME280;4351;51.422;6.794;2023-02-10T06:00:21;103615.53;;;3.41;100.00
8627;BME280;4351;51.422;6.794;2023-02-10T06:02:49;103619.19;;;3.46;100.00
8627;BME280;4351;51.422;6.794;2023-02-10T06:05:17;103615.44;;;3.35;100.00
8627;BME280;4351;51.422;6.794;2023-02-10T06:07:45;103616.44;;;3.43;100.00
8627;BME280;4351;51.422;6.794;2023-02-10T06:10:13;103620.88;;;3.41;100.00
8627;BME280;4351;51.422;6.794;2023-02-10T06:12:42;103610.91;;;3.30;100.00
8627;BME280;4351;51.422;6.794;2023-02-10T06:15:10;103617.34;;;3.42;100.00
8627;BME280;4351;51.422;6.794;2023-02-10T06:17:38;103617.38;;;3.45;100.00
8627;BME280;4351;51.422;6.794;2023-02-10T06:20:06;103612.84;;;3.39;100.00
8627;BME280;4351;51.422;6.794;2023-02-10T06:22:34;103612.84;;;3.41;100.00
8627;BME280;4351;51.422;6.794;2023-02-10T06:25:02;103625.69;;;3.65;100.00
8627;BME280;4351;51.422;6.794;2023-02-10T06:27:30;103615.44;;;3.35;100.00
8627;BME280;4351;51.422;6.794;2023-02-10T06:30:00;103623.66;;;3.49;100.00
8627;BME280;4351;51.422;6.794;2023-02-10T06:32:28;103631.72;;;3.53;100.00
8627;BME280;4351;51.422;6.794;2023-02-10T06:34:56;103626.34;;;3.50;100.00
8627;BME280;4351;51.422;6.794;2023-02-10T06:37:24;103626.34;;;3.49;100.00
8627;BME280;4351;51.422;6.794;2023-02-10T06:39:52;103637.78;;;3.40;100.00
8627;BME280;4351;51.422;6.794;2023-02-10T06:42:21;103633.47;;;3.51;100.00
8627;BME280;4351;51.422;6.794;2023-02-10T06:44:49;103628.09;;;3.47;100.00
8627;BME280;4351;51.422;6.794;2023-02-10T06:47:18;103630.59;;;3.36;100.00
8627;BME280;4351;51.422;6.794;2023-02-10T06:49:46;103629.53;;;3.26;100.00
8627;BME280;4351;51.422;6.794;2023-02-10T06:52:14;103625.03;;;3.23;100.00
8627;BME280;4351;51.422;6.794;2023-02-10T06:54:43;103621.75;;;3.40;100.00
8627;BME280;4351;51.422;6.794;2023-02-10T06:57:11;103603.00;;;3.37;100.00
8627;BME280;4351;51.422;6.794;2023-02-10T06:59:39;103610.03;;;3.31;100.00
8627;BME280;4351;51.422;6.794;2023-02-10T07:02:08;103600.91;;;3.17;100.00
8627;BME280;4351;51.422;6.794;2023-02-10T07:04:38;103606.41;;;3.26;100.00
8627;BME280;4351;51.422;6.794;2023-02-10T07:07:06;103602.81;;;3.24;100.00
8627;BME280;4351;51.422;6.794;2023-02-10T07:09:34;103599.41;;;3.35;100.00
8627;BME280;4351;51.422;6.794;2023-02-10T07:12:02;103591.91;;;3.12;100.00
8627;BME280;4351;51.422;6.794;2023-02-10T07:14:30;103595.63;;;3.20;100.00
8627;BME280;4351;51.422;6.794;2023-02-10T07:16:58;103595.50;;;3.12;100.00
8627;BME280;4351;51.422;6.794;2023-02-10T07:19:26;103600.69;;;3.03;100.00
8627;BME280;4351;51.422;6.794;2023-02-10T07:21:55;103602.50;;;3.05;100.00
8627;BME280;4351;51.422;6.794;2023-02-10T07:24:23;103609.84;;;3.19;100.00
8627;BME280;4351;51.422;6.794;2023-02-10T07:26:51;103613.84;;;2.93;100.00
8627;BME280;4351;51.422;6.794;2023-02-10T07:29:19;103624.63;;;2.99;100.00
8627;BME280;4351;51.422;6.794;2023-02-10T07:31:47;103621.94;;;2.98;100.00
8627;BME280;4351;51.422;6.794;2023-02-10T07:34:15;103626.59;;;3.10;100.00
8627;BME280;4351;51.422;6.794;2023-02-10T07:36:45;103612.09;;;2.94;100.00
8627;BME280;4351;51.422;6.794;2023-02-10T07:39:15;103614.53;;;2.81;100.00
8627;BME280;4351;51.422;6.794;2023-02-10T07:41:43;103631.00;;;3.09;100.00
8627;BME280;4351;51.422;6.794;2023-02-10T07:44:11;103638.97;;;3.05;100.00
8627;BME280;4351;51.422;6.794;2023-02-10T07:46:39;103631.53;;;2.88;100.00
8627;BME280;4351;51.422;6.794;2023-02-10T07:49:06;103637.06;;;2.99;100.00
8627;BME280;4351;51.422;6.794;2023-02-10T07:51:35;103638.19;;;3.12;100.00
8627;BME280;4351;51.422;6.794;2023-02-10T07:54:03;103630.88;;;3.00;100.00
8627;BME280;4351;51.422;6.794;2023-02-10T07:56:33;103633.34;;;2.89;100.00
8627;BME280;4351;51.422;6.794;2023-02-10T07:59:01;103637.09;;;3.01;100.00
8627;BME280;4351;51.422;6.794;2023-02-10T08:01:29;103645.13;;;3.02;100.00
8627;BME280;4351;51.422;6.794;2023-02-10T08:03:58;103640.44;;;2.89;100.00
8627;BME280;4351;51.422;6.794;2023-02-10T08:06:26;103642.84;;;3.24;100.00
8627;BME280;4351;51.422;6.794;2023-02-10T08:08:54;103647.56;;;3.41;100.00
8627;BME280;4351;51.422;6.794;2023-02-10T08:11:22;103643.13;;;3.41;100.00
8627;BME280;4351;51.422;6.794;2023-02-10T08:13:51;103641.59;;;3.58;100.00
8627;BME280;4351;51.422;6.794;2023-02-10T08:16:19;103644.78;;;3.92;100.00
8627;BME280;4351;51.422;6.794;2023-02-10T08:18:47;103646.31;;;3.77;100.00
8627;BME280;4351;51.422;6.794;2023-02-10T08:21:15;103642.03;;;3.86;100.00
8627;BME280;4351;51.422;6.794;2023-02-10T08:23:43;103639.13;;;3.70;100.00
8627;BME280;4351;51.422;6.794;2023-02-10T08:26:12;103634.69;;;3.72;100.00
8627;BME280;4351;51.422;6.794;2023-02-10T08:28:40;103636.91;;;4.01;100.00
8627;BME280;4351;51.422;6.794;2023-02-10T08:31:09;103641.69;;;4.28;100.00
8627;BME280;4351;51.422;6.794;2023-02-10T08:33:38;103636.47;;;4.40;100.00
8627;BME280;4351;51.422;6.794;2023-02-10T08:36:14;103624.59;;;4.16;100.00
8627;BME280;4351;51.422;6.794;2023-02-10T08:38:44;103621.72;;;4.00;100.00
8627;BME280;4351;51.422;6.794;2023-02-10T08:41:12;103615.63;;;4.12;100.00
8627;BME280;4351;51.422;6.794;2023-02-10T08:43:40;103613.56;;;3.91;100.00
8627;BME280;4351;51.422;6.794;2023-02-10T08:46:10;103612.56;;;3.83;100.00
8627;BME280;4351;51.422;6.794;2023-02-10T08:48:38;103618.00;;;3.87;100.00
8627;BME280;4351;51.422;6.794;2023-02-10T08:51:07;103610.66;;;3.72;100.00
8627;BME280;4351;51.422;6.794;2023-02-10T08:53:36;103618.81;;;3.83;100.00
8627;BME280;4351;51.422;6.794;2023-02-10T08:56:06;103621.44;;;3.80;100.00
8627;BME280;4351;51.422;6.794;2023-02-10T08:58:35;103613.31;;;3.71;100.00
8627;BME280;4351;51.422;6.794;2023-02-10T09:01:09;103614.41;;;3.87;100.00
8627;BME280;4351;51.422;6.794;2023-02-10T09:03:38;103621.78;;;4.04;100.00
8627;BME280;4351;51.422;6.794;2023-02-10T09:06:12;103634.16;;;3.98;100.00
8627;BME280;4351;51.422;6.794;2023-02-10T09:08:41;103634.31;;;4.11;100.00
8627;BME280;4351;51.422;6.794;2023-02-10T09:11:09;103638.88;;;4.18;100.00
8627;BME280;4351;51.422;6.794;2023-02-10T09:13:37;103637.13;;;4.19;100.00
8627;BME280;4351;51.422;6.794;2023-02-10T09:16:05;103646.41;;;4.52;100.00
8627;BME280;4351;51.422;6.794;2023-02-10T09:18:35;103640.38;;;4.70;100.00
8627;BME280;4351;51.422;6.794;2023-02-10T09:21:03;103635.91;;;4.69;100.00
8627;BME280;4351;51.422;6.794;2023-02-10T09:23:31;103635.69;;;4.49;100.00
8627;BME280;4351;51.422;6.794;2023-02-10T09:25:59;103645.03;;;4.90;100.00
8627;BME280;4351;51.422;6.794;2023-02-10T09:28:28;103646.69;;;4.79;100.00
8627;BME280;4351;51.422;6.794;2023-02-10T09:30:56;103644.06;;;4.85;100.00
8627;BME280;4351;51.422;6.794;2023-02-10T09:33:25;103644.19;;;4.94;100.00
8627;BME280;4351;51.422;6.794;2023-02-10T09:35:54;103650.69;;;5.23;100.00
8627;BME280;4351;51.422;6.794;2023-02-10T09:38:22;103662.44;;;5.39;100.00
8627;BME280;4351;51.422;6.794;2023-02-10T09:40:59;103657.13;;;5.49;100.00
8627;BME280;4351;51.422;6.794;2023-02-10T09:43:47;103648.19;;;5.47;100.00
8627;BME280;4351;51.422;6.794;2023-02-10T09:46:26;103645.50;;;5.47;100.00
8627;BME280;4351;51.422;6.794;2023-02-10T09:49:07;103641.06;;;5.46;100.00
8627;BME280;4351;51.422;6.794;2023-02-10T09:51:49;103624.91;;;5.35;100.00
8627;BME280;4351;51.422;6.794;2023-02-10T09:54:22;103623.19;;;5.45;100.00
8627;BME280;4351;51.422;6.794;2023-02-10T09:56:50;103624.31;;;5.77;100.00
8627;BME280;4351;51.422;6.794;2023-02-10T09:59:19;103630.59;;;5.88;100.00
8627;BME280;4351;51.422;6.794;2023-02-10T10:01:52;103618.94;;;5.80;100.00
8627;BME280;4351;51.422;6.794;2023-02-10T10:04:22;103613.59;;;5.86;100.00
8627;BME280;4351;51.422;6.794;2023-02-10T10:06:56;103619.88;;;5.83;100.00
8627;BME280;4351;51.422;6.794;2023-02-10T10:09:36;103625.31;;;6.02;100.00
8627;BME280;4351;51.422;6.794;2023-02-10T10:12:08;103619.03;;;5.97;100.00
8627;BME280;4351;51.422;6.794;2023-02-10T10:14:40;103621.72;;;5.95;100.00
8627;BME280;4351;51.422;6.794;2023-02-10T10:17:20;103622.56;;;5.88;100.00
8627;BME280;4351;51.422;6.794;2023-02-10T10:19:59;103623.47;;;5.89;100.00
8627;BME280;4351;51.422;6.794;2023-02-10T10:22:41;103625.34;;;6.05;100.00
8627;BME280;4351;51.422;6.794;2023-02-10T10:25:37;103632.63;;;6.25;100.00
8627;BME280;4351;51.422;6.794;2023-02-10T10:28:17;103626.31;;;6.15;100.00
8627;BME280;4351;51.422;6.794;2023-02-10T10:30:48;103623.59;;;6.11;100.00
8627;BME280;4351;51.422;6.794;2023-02-10T10:33:22;103627.25;;;6.25;100.00
8627;BME280;4351;51.422;6.794;2023-02-10T10:35:51;103640.69;;;6.41;100.00
8627;BME280;4351;51.422;6.794;2023-02-10T10:38:24;103642.50;;;6.45;100.00
8627;BME280;4351;51.422;6.794;2023-02-10T10:40:55;103641.59;;;6.40;100.00
8627;BME280;4351;51.422;6.794;2023-02-10T10:43:31;103641.59;;;6.40;100.00
8627;BME280;4351;51.422;6.794;2023-02-10T10:46:05;103638.88;;;6.32;100.00
8627;BME280;4351;51.422;6.794;2023-02-10T10:48:35;103635.38;;;6.55;100.00
8627;BME280;4351;51.422;6.794;2023-02-10T10:51:08;103635.38;;;6.47;100.00
8627;BME280;4351;51.422;6.794;2023-02-10T10:53:40;103637.19;;;6.51;100.00
8627;BME280;4351;51.422;6.794;2023-02-10T10:56:15;103629.13;;;6.61;100.00
8627;BME280;4351;51.422;6.794;2023-02-10T10:58:49;103641.69;;;6.74;100.00
8627;BME280;4351;51.422;6.794;2023-02-10T11:01:32;103623.75;;;6.48;100.00
8627;BME280;4351;51.422;6.794;2023-02-10T11:04:06;103628.22;;;6.51;100.00
8627;BME280;4351;51.422;6.794;2023-02-10T11:06:36;103629.16;;;6.58;100.00
8627;BME280;4351;51.422;6.794;2023-02-10T11:09:18;103620.19;;;6.63;100.00
8627;BME280;4351;51.422;6.794;2023-02-10T11:11:49;103618.44;;;6.75;100.00
8627;BME280;4351;51.422;6.794;2023-02-10T11:14:21;103616.66;;;6.77;100.00
8627;BME280;4351;51.422;6.794;2023-02-10T11:16:53;103626.50;;;6.89;100.00
8627;BME280;4351;51.422;6.794;2023-02-10T11:19:26;103623.84;;;6.95;100.00
8627;BME280;4351;51.422;6.794;2023-02-10T11:22:18;103621.13;;;6.80;100.00
8627;BME280;4351;51.422;6.794;2023-02-10T11:24:51;103611.28;;;6.75;100.00
8627;BME280;4351;51.422;6.794;2023-02-10T11:27:21;103614.84;;;6.74;100.00
8627;BME280;4351;51.422;6.794;2023-02-10T11:29:54;103608.63;;;6.99;100.00
8627;BME280;4351;51.422;6.794;2023-02-10T11:32:25;103594.28;;;6.89;100.00
8627;BME280;4351;51.422;6.794;2023-02-10T11:34:55;103590.72;;;7.06;100.00
8627;BME280;4351;51.422;6.794;2023-02-10T11:37:27;103593.41;;;7.28;100.00
8627;BME280;4351;51.422;6.794;2023-02-10T11:39:59;103583.53;;;7.27;100.00
8627;BME280;4351;51.422;6.794;2023-02-10T11:42:30;103578.16;;;7.41;100.00
8627;BME280;4351;51.422;6.794;2023-02-10T11:45:01;103575.44;;;7.55;100.00
8627;BME280;4351;51.422;6.794;2023-02-10T11:47:32;103582.50;;;7.93;100.00
8627;BME280;4351;51.422;6.794;2023-02-10T11:50:00;103577.19;;;7.76;100.00
8627;BME280;4351;51.422;6.794;2023-02-10T11:52:29;103575.38;;;7.77;100.00
8627;BME280;4351;51.422;6.794;2023-02-10T11:55:08;103570.88;;;7.82;100.00
8627;BME280;4351;51.422;6.794;2023-02-10T11:57:46;103561.88;;;7.97;100.00
8627;BME280;4351;51.422;6.794;2023-02-10T12:00:37;103552.84;;;8.08;100.00
8627;BME280;4351;51.422;6.794;2023-02-10T12:03:35;103548.41;;;7.99;100.00
8627;BME280;4351;51.422;6.794;2023-02-10T12:06:14;103545.69;;;8.08;100.00
8627;BME280;4351;51.422;6.794;2023-02-10T12:09:08;103554.53;;;8.31;100.00
8627;BME280;4351;51.422;6.794;2023-02-10T12:11:46;103545.53;;;8.35;100.00
8627;BME280;4351;51.422;6.794;2023-02-10T12:14:36;103536.50;;;8.45;100.00
8627;BME280;4351;51.422;6.794;2023-02-10T12:17:23;103517.81;;;8.19;100.00
8627;BME280;4351;51.422;6.794;2023-02-10T12:20:02;103514.13;;;8.37;100.00
8627;BME280;4351;51.422;6.794;2023-02-10T12:22:44;103507.97;;;8.18;100.00
8627;BME280;4351;51.422;6.794;2023-02-10T12:25:21;103496.47;;;7.90;100.00
8627;BME280;4351;51.422;6.794;2023-02-10T12:27:59;103498.13;;;8.20;100.00
8627;BME280;4351;51.422;6.794;2023-02-10T12:30:37;103491.75;;;8.33;100.00
8627;BME280;4351;51.422;6.794;2023-02-10T12:33:33;103495.22;;;8.48;100.00
8627;BME280;4351;51.422;6.794;2023-02-10T12:36:11;103488.00;;;8.58;100.00
8627;BME280;4351;51.422;6.794;2023-02-10T12:38:54;103490.63;;;8.66;100.00
8627;BME280;4351;51.422;6.794;2023-02-10T12:41:29;103479.88;;;8.66;100.00
8627;BME280;4351;51.422;6.794;2023-02-10T12:44:15;103481.28;;;9.04;100.00
8627;BME280;4351;51.422;6.794;2023-02-10T12:46:57;103481.28;;;9.04;100.00
8627;BME280;4351;51.422;6.794;2023-02-10T12:49:38;103469.72;;;8.96;100.00
8627;BME280;4351;51.422;6.794;2023-02-10T12:52:13;103472.69;;;8.66;100.00
8627;BME280;4351;51.422;6.794;2023-02-10T12:54:52;103468.19;;;8.65;100.00
8627;BME280;4351;51.422;6.794;2023-02-10T12:57:27;103457.31;;;8.78;100.00
8627;BME280;4351;51.422;6.794;2023-02-10T13:00:00;103464.47;;;8.80;100.00
8627;BME280;4351;51.422;6.794;2023-02-10T13:02:37;103462.81;;;8.65;100.00
8627;BME280;4351;51.422;6.794;2023-02-10T13:05:10;103463.44;;;8.94;100.00
8627;BME280;4351;51.422;6.794;2023-02-10T13:07:43;103464.38;;;8.90;100.00
8627;BME280;4351;51.422;6.794;2023-02-10T13:10:22;103466.25;;;8.83;100.00
8627;BME280;4351;51.422;6.794;2023-02-10T13:12:58;103460.09;;;8.67;100.00
8627;BME280;4351;51.422;6.794;2023-02-10T13:15:31;103456.38;;;8.83;100.00
8627;BME280;4351;51.422;6.794;2023-02-10T13:18:02;103467.94;;;8.93;100.00
8627;BME280;4351;51.422;6.794;2023-02-10T13:20:37;103459.75;;;9.04;100.00
8627;BME280;4351;51.422;6.794;2023-02-10T13:23:18;103465.25;;;8.93;100.00
8627;BME280;4351;51.422;6.794;2023-02-10T13:26:02;103445.72;;;8.72;100.00
8627;BME280;4351;51.422;6.794;2023-02-10T13:28:42;103439.47;;;8.70;100.00
8627;BME280;4351;51.422;6.794;2023-02-10T13:31:24;103441.38;;;8.53;100.00
8627;BME280;4351;51.422;6.794;2023-02-10T13:34:01;103446.66;;;8.68;100.00